createdAt,value
2018-05-10T00:00:07.533Z,67.56
2018-05-10T00:00:38.733Z,67.45
2018-05-10T00:01:09.937Z,67.85
2018-05-10T00:01:41.166Z,67.85
2018-05-10T00:02:12.382Z,67.83
2018-05-10T00:02:43.601Z,67.83
2018-05-10T00:03:14.853Z,67.64
2018-05-10T00:03:46.053Z,67.71
2018-05-10T00:04:17.274Z,67.93
2018-05-10T00:04:48.489Z,67.98
2018-05-10T00:05:19.710Z,68.01
2018-05-10T00:05:50.954Z,68.13
2018-05-10T00:06:22.186Z,68.20
2018-05-10T00:06:53.420Z,68.19
2018-05-10T00:07:24.638Z,68.27
2018-05-10T00:07:55.859Z,68.28
2018-05-10T00:08:27.069Z,68.21
2018-05-10T00:08:58.297Z,68.33
2018-05-10T00:09:29.518Z,68.39
2018-05-10T00:10:00.712Z,68.33
2018-05-10T00:10:31.917Z,68.36
2018-05-10T00:11:03.152Z,68.55
2018-05-10T00:11:34.436Z,68.81
2018-05-10T00:12:05.646Z,68.99
2018-05-10T00:12:36.885Z,69.05
2018-05-10T00:13:08.094Z,69.20
2018-05-10T00:13:39.304Z,69.13
2018-05-10T00:14:10.557Z,69.58
2018-05-10T00:14:41.786Z,70.35
2018-05-10T00:15:13.018Z,71.05
2018-05-10T00:15:44.237Z,71.58
2018-05-10T00:16:15.485Z,71.00
2018-05-10T00:16:46.693Z,71.78
2018-05-10T00:17:17.899Z,71.29
2018-05-10T00:17:49.109Z,71.23
2018-05-10T00:18:20.318Z,71.40
2018-05-10T00:18:51.535Z,72.16
2018-05-10T00:19:22.784Z,72.55
2018-05-10T00:19:53.985Z,72.05
2018-05-10T00:20:25.187Z,71.81
2018-05-10T00:20:56.400Z,72.30
2018-05-10T00:21:27.650Z,72.83
2018-05-10T00:21:58.858Z,73.92
2018-05-10T00:22:30.090Z,73.70
2018-05-10T00:23:01.301Z,73.36
2018-05-10T00:23:32.501Z,73.54
2018-05-10T00:24:03.712Z,74.50
2018-05-10T00:24:34.956Z,74.79
2018-05-10T00:25:06.173Z,75.12
2018-05-10T00:25:37.390Z,75.00
2018-05-10T00:26:08.613Z,75.18
2018-05-10T00:26:39.824Z,75.55
2018-05-10T00:27:11.057Z,75.74
2018-05-10T00:27:42.278Z,75.94
2018-05-10T00:28:13.539Z,76.49
2018-05-10T00:28:44.794Z,76.79
2018-05-10T00:29:16.012Z,77.18
2018-05-10T00:29:47.270Z,77.36
2018-05-10T00:30:18.481Z,76.92
2018-05-10T00:30:49.726Z,76.85
2018-05-10T00:31:20.957Z,77.02
2018-05-10T00:31:52.185Z,77.38
2018-05-10T00:32:23.408Z,77.37
2018-05-10T00:32:54.617Z,77.37
2018-05-10T00:33:25.860Z,77.35
2018-05-10T00:33:59.271Z,77.16
2018-05-10T00:34:30.541Z,77.22
2018-05-10T00:35:01.889Z,77.41
2018-05-10T00:35:33.128Z,77.42
2018-05-10T00:36:04.341Z,77.70
2018-05-10T00:36:35.610Z,77.91
2018-05-10T00:37:06.829Z,77.72
2018-05-10T00:37:38.044Z,77.70
2018-05-10T00:38:09.297Z,78.08
2018-05-10T00:38:40.525Z,78.31
2018-05-10T00:39:11.758Z,78.04
2018-05-10T00:39:43.010Z,78.06
2018-05-10T00:40:14.274Z,77.93
2018-05-10T00:40:45.527Z,78.52
2018-05-10T00:41:16.765Z,79.13
2018-05-10T00:41:48.004Z,79.54
2018-05-10T00:42:19.232Z,79.82
2018-05-10T00:42:50.486Z,80.07
2018-05-10T00:43:21.697Z,80.24
2018-05-10T00:43:52.899Z,80.41
2018-05-10T00:44:24.164Z,80.52
2018-05-10T00:44:55.372Z,80.62
2018-05-10T00:45:26.593Z,80.77
2018-05-10T00:45:57.833Z,80.98
2018-05-10T00:46:29.040Z,80.90
2018-05-10T00:47:00.282Z,81.28
2018-05-10T00:47:31.500Z,81.16
2018-05-10T00:48:02.713Z,81.14
2018-05-10T00:48:33.922Z,80.85
2018-05-10T00:49:05.179Z,80.56
2018-05-10T00:49:36.522Z,80.37
2018-05-10T00:50:07.701Z,80.39
2018-05-10T00:50:38.948Z,80.83
2018-05-10T00:51:10.229Z,80.95
2018-05-10T00:51:41.417Z,80.77
2018-05-10T00:52:12.672Z,80.54
2018-05-10T00:52:43.888Z,80.11
2018-05-10T00:53:15.121Z,79.87
2018-05-10T00:53:46.356Z,80.13
2018-05-10T00:54:17.569Z,79.89
2018-05-10T00:54:48.829Z,79.59
2018-05-10T00:55:20.050Z,79.27
2018-05-10T00:55:51.253Z,78.09
2018-05-10T00:56:22.452Z,77.34
2018-05-10T00:56:53.670Z,76.88
2018-05-10T00:57:24.903Z,76.38
2018-05-10T00:57:56.130Z,76.61
2018-05-10T00:58:27.356Z,77.01
2018-05-10T00:58:58.696Z,76.71
2018-05-10T00:59:29.944Z,75.52
2018-05-10T01:00:01.188Z,75.60
2018-05-10T01:00:32.418Z,76.22
2018-05-10T01:01:03.691Z,77.05
2018-05-10T01:01:34.931Z,77.56
2018-05-10T01:02:06.146Z,77.91
2018-05-10T01:02:37.404Z,78.05
2018-05-10T01:03:08.609Z,77.62
2018-05-10T01:03:39.822Z,77.65
2018-05-10T01:04:11.049Z,77.00
2018-05-10T01:04:42.374Z,76.93
2018-05-10T01:05:13.566Z,76.87
2018-05-10T01:05:44.776Z,76.91
2018-05-10T01:06:16.007Z,76.71
2018-05-10T01:06:47.285Z,76.73
2018-05-10T01:07:18.489Z,76.73
2018-05-10T01:07:49.733Z,76.65
2018-05-10T01:08:20.950Z,76.48
2018-05-10T01:08:52.174Z,76.88
2018-05-10T01:09:23.397Z,76.71
2018-05-10T01:09:54.631Z,76.80
2018-05-10T01:10:25.849Z,76.69
2018-05-10T01:10:57.066Z,76.76
2018-05-10T01:11:28.295Z,77.09
2018-05-10T01:11:59.557Z,77.37
2018-05-10T01:12:30.765Z,77.58
2018-05-10T01:13:01.988Z,78.01
2018-05-10T01:13:33.238Z,78.11
2018-05-10T01:14:04.465Z,78.71
2018-05-10T01:14:35.682Z,79.25
2018-05-10T01:15:06.893Z,79.49
2018-05-10T01:15:38.105Z,79.55
2018-05-10T01:16:09.317Z,79.93
2018-05-10T01:16:40.537Z,80.58
2018-05-10T01:17:11.808Z,80.15
2018-05-10T01:17:43.023Z,81.05
2018-05-10T01:18:14.243Z,81.18
2018-05-10T01:18:45.474Z,81.46
2018-05-10T01:19:16.704Z,81.38
2018-05-10T01:19:47.961Z,81.31
2018-05-10T01:20:19.178Z,81.34
2018-05-10T01:20:50.385Z,81.97
2018-05-10T01:21:21.606Z,82.08
2018-05-10T01:21:52.818Z,82.29
2018-05-10T01:22:24.025Z,82.41
2018-05-10T01:22:55.250Z,82.38
2018-05-10T01:23:26.493Z,82.53
2018-05-10T01:23:57.698Z,82.55
2018-05-10T01:24:28.912Z,82.64
2018-05-10T01:25:00.179Z,82.63
2018-05-10T01:25:31.392Z,82.66
2018-05-10T01:26:02.601Z,82.85
2018-05-10T01:26:33.819Z,82.79
2018-05-10T01:27:05.035Z,82.61
2018-05-10T01:27:36.273Z,82.47
2018-05-10T01:28:07.485Z,82.35
2018-05-10T01:28:38.742Z,82.39
2018-05-10T01:29:09.952Z,82.49
2018-05-10T01:29:41.187Z,82.54
2018-05-10T01:30:12.402Z,82.46
2018-05-10T01:30:43.627Z,82.39
2018-05-10T01:31:14.840Z,82.38
2018-05-10T01:31:46.053Z,82.52
2018-05-10T01:32:17.286Z,82.59
2018-05-10T01:32:48.493Z,82.50
2018-05-10T01:33:19.725Z,82.45
2018-05-10T01:33:50.980Z,82.60
2018-05-10T01:34:22.191Z,82.62
2018-05-10T01:34:53.431Z,82.80
2018-05-10T01:35:24.698Z,82.82
2018-05-10T01:35:55.910Z,82.94
2018-05-10T01:36:27.120Z,82.93
2018-05-10T01:36:58.362Z,82.86
2018-05-10T01:37:29.581Z,82.65
2018-05-10T01:38:00.808Z,82.51
2018-05-10T01:38:32.019Z,82.52
2018-05-10T01:39:03.277Z,82.18
2018-05-10T01:39:34.494Z,82.33
2018-05-10T01:40:05.718Z,82.66
2018-05-10T01:40:36.935Z,82.60
2018-05-10T01:41:08.149Z,82.40
2018-05-10T01:41:39.367Z,82.19
2018-05-10T01:42:10.607Z,82.15
2018-05-10T01:42:41.837Z,82.11
2018-05-10T01:43:13.049Z,81.99
2018-05-10T01:43:44.253Z,82.08
2018-05-10T01:44:15.506Z,81.93
2018-05-10T01:44:46.732Z,81.79
2018-05-10T01:45:17.942Z,81.22
2018-05-10T01:45:49.158Z,80.25
2018-05-10T01:46:20.369Z,81.23
2018-05-10T01:46:51.580Z,81.05
2018-05-10T01:47:22.810Z,80.67
2018-05-10T01:47:54.040Z,80.37
2018-05-10T01:48:25.265Z,80.29
2018-05-10T01:48:56.477Z,80.39
2018-05-10T01:49:27.730Z,80.32
2018-05-10T01:49:58.994Z,80.08
2018-05-10T01:50:30.201Z,79.70
2018-05-10T01:51:01.415Z,79.47
2018-05-10T01:51:32.677Z,79.32
2018-05-10T01:52:03.911Z,79.19
2018-05-10T01:52:35.125Z,79.00
2018-05-10T01:53:06.359Z,78.63
2018-05-10T01:53:37.618Z,78.10
2018-05-10T01:54:08.828Z,76.58
2018-05-10T01:54:40.051Z,76.06
2018-05-10T01:55:11.273Z,76.31
2018-05-10T01:55:42.537Z,75.64
2018-05-10T01:56:13.756Z,75.78
2018-05-10T01:56:44.974Z,75.64
2018-05-10T01:57:16.191Z,75.47
2018-05-10T01:57:47.383Z,75.35
2018-05-10T01:58:18.584Z,75.32
2018-05-10T01:58:49.798Z,75.26
2018-05-10T01:59:21.000Z,75.12
2018-05-10T01:59:52.197Z,75.25
2018-05-10T02:00:23.425Z,75.20
2018-05-10T02:00:54.676Z,74.90
2018-05-10T02:01:25.904Z,74.90
2018-05-10T02:01:57.149Z,74.95
2018-05-10T02:02:28.384Z,75.01
2018-05-10T02:02:59.589Z,75.11
2018-05-10T02:03:30.813Z,75.13
2018-05-10T02:04:02.029Z,74.37
2018-05-10T02:04:33.241Z,73.93
2018-05-10T02:05:04.459Z,73.83
2018-05-10T02:05:35.691Z,73.99
2018-05-10T02:06:06.965Z,74.05
2018-05-10T02:06:38.280Z,74.30
2018-05-10T02:07:09.522Z,74.50
2018-05-10T02:07:40.806Z,74.82
2018-05-10T02:08:12.171Z,75.02
2018-05-10T02:08:43.431Z,74.86
2018-05-10T02:09:14.706Z,74.90
2018-05-10T02:09:45.944Z,74.96
2018-05-10T02:10:17.157Z,75.21
2018-05-10T02:10:48.361Z,75.52
2018-05-10T02:11:19.583Z,75.62
2018-05-10T02:11:50.836Z,75.65
2018-05-10T02:12:22.037Z,75.68
2018-05-10T02:12:53.267Z,75.73
2018-05-10T02:13:24.480Z,75.79
2018-05-10T02:13:55.703Z,75.83
2018-05-10T02:14:26.908Z,75.75
2018-05-10T02:14:58.113Z,75.64
2018-05-10T02:15:29.334Z,75.53
2018-05-10T02:16:00.557Z,75.47
2018-05-10T02:16:31.783Z,75.08
2018-05-10T02:17:03.037Z,75.09
2018-05-10T02:17:34.272Z,75.18
2018-05-10T02:18:05.493Z,75.32
2018-05-10T02:18:36.712Z,75.17
2018-05-10T02:19:07.929Z,75.14
2018-05-10T02:19:39.137Z,75.23
2018-05-10T02:20:10.436Z,75.31
2018-05-10T02:20:41.660Z,75.33
2018-05-10T02:21:12.878Z,75.32
2018-05-10T02:21:44.109Z,75.34
2018-05-10T02:22:15.364Z,75.33
2018-05-10T02:22:46.611Z,75.17
2018-05-10T02:23:17.825Z,75.12
2018-05-10T02:23:49.037Z,75.13
2018-05-10T02:24:20.264Z,75.15
2018-05-10T02:24:51.514Z,75.20
2018-05-10T02:25:22.722Z,75.20
2018-05-10T02:25:53.944Z,75.24
2018-05-10T02:26:25.152Z,75.28
2018-05-10T02:26:56.360Z,75.27
2018-05-10T02:27:27.652Z,75.15
2018-05-10T02:27:58.901Z,75.01
2018-05-10T02:28:30.110Z,75.04
2018-05-10T02:29:01.321Z,75.09
2018-05-10T02:29:32.607Z,75.05
2018-05-10T02:30:03.827Z,75.12
2018-05-10T02:30:35.075Z,75.13
2018-05-10T02:31:06.311Z,74.99
2018-05-10T02:31:37.524Z,74.75
2018-05-10T02:32:08.737Z,74.64
2018-05-10T02:32:39.971Z,74.61
2018-05-10T02:33:11.242Z,74.51
2018-05-10T02:33:42.470Z,74.34
2018-05-10T02:34:13.692Z,74.30
2018-05-10T02:34:44.970Z,74.29
2018-05-10T02:35:16.185Z,74.29
2018-05-10T02:35:47.445Z,74.33
2018-05-10T02:36:18.692Z,74.36
2018-05-10T02:36:49.906Z,74.26
2018-05-10T02:37:21.117Z,74.29
2018-05-10T02:37:52.355Z,74.34
2018-05-10T02:38:23.677Z,74.37
2018-05-10T02:38:54.969Z,74.30
2018-05-10T02:39:26.564Z,74.16
2018-05-10T02:39:58.350Z,74.00
2018-05-10T02:40:29.662Z,74.01
2018-05-10T02:41:00.966Z,74.06
2018-05-10T02:41:32.293Z,74.09
2018-05-10T02:42:03.631Z,73.78
2018-05-10T02:42:35.004Z,73.50
2018-05-10T02:43:06.359Z,73.65
2018-05-10T02:44:19.633Z,73.88
2018-05-10T02:44:55.696Z,73.97
2018-05-10T02:45:26.932Z,74.15
2018-05-10T02:45:58.167Z,73.68
2018-05-10T02:46:29.397Z,73.16
2018-05-10T02:47:00.631Z,73.25
2018-05-10T02:47:31.957Z,73.45
2018-05-10T02:48:03.201Z,73.48
2018-05-10T02:49:11.702Z,74.29
2018-05-10T02:49:42.932Z,74.22
2018-05-10T02:50:14.160Z,73.87
2018-05-10T02:50:45.401Z,73.41
2018-05-10T02:51:16.632Z,73.21
2018-05-10T02:51:47.860Z,72.89
2018-05-10T02:52:19.155Z,73.07
2018-05-10T02:52:50.428Z,72.97
2018-05-10T02:53:21.665Z,72.79
2018-05-10T02:53:52.888Z,72.69
2018-05-10T02:54:24.134Z,72.26
2018-05-10T02:54:55.374Z,71.84
2018-05-10T02:55:26.598Z,71.79
2018-05-10T02:55:57.856Z,71.84
2018-05-10T02:56:29.118Z,72.00
2018-05-10T02:57:00.357Z,71.44
2018-05-10T02:57:31.631Z,71.54
2018-05-10T02:58:02.861Z,71.49
2018-05-10T02:58:34.102Z,71.29
2018-05-10T02:59:05.331Z,71.33
2018-05-10T02:59:36.565Z,71.27
2018-05-10T03:00:07.786Z,71.24
2018-05-10T03:00:39.039Z,71.36
2018-05-10T03:01:10.270Z,71.37
2018-05-10T03:01:41.504Z,71.38
2018-05-10T03:02:12.739Z,71.20
2018-05-10T03:02:44.036Z,70.58
2018-05-10T03:03:15.287Z,70.19
2018-05-10T03:03:46.544Z,70.42
2018-05-10T03:04:17.833Z,70.32
2018-05-10T03:04:49.070Z,70.24
2018-05-10T03:05:20.317Z,70.54
2018-05-10T03:05:51.549Z,70.53
2018-05-10T03:06:22.833Z,70.51
2018-05-10T03:06:54.102Z,70.64
2018-05-10T03:07:25.410Z,70.67
2018-05-10T03:07:58.126Z,70.58
2018-05-10T03:08:29.408Z,70.81
2018-05-10T03:09:01.831Z,70.92
2018-05-10T03:09:33.199Z,71.09
2018-05-10T03:10:04.565Z,70.87
2018-05-10T03:10:35.817Z,70.66
2018-05-10T03:11:07.042Z,70.59
2018-05-10T03:11:38.280Z,70.17
2018-05-10T03:12:09.590Z,70.15
2018-05-10T03:12:40.848Z,70.18
2018-05-10T03:13:12.082Z,70.31
2018-05-10T03:13:43.303Z,70.34
2018-05-10T03:14:14.538Z,70.19
2018-05-10T03:14:45.785Z,70.34
2018-05-10T03:15:17.024Z,70.46
2018-05-10T03:15:48.251Z,70.32
2018-05-10T03:16:19.516Z,70.34
2018-05-10T03:16:50.763Z,70.09
2018-05-10T03:17:22.093Z,69.94
2018-05-10T03:17:53.312Z,69.41
2018-05-10T03:18:24.627Z,69.28
2018-05-10T03:18:55.866Z,69.32
2018-05-10T03:19:27.095Z,69.33
2018-05-10T03:19:58.328Z,69.48
2018-05-10T03:20:29.555Z,69.57
2018-05-10T03:21:00.801Z,69.39
2018-05-10T03:21:32.082Z,69.48
2018-05-10T03:22:03.353Z,69.58
2018-05-10T03:22:34.757Z,69.79
2018-05-10T03:23:05.994Z,70.44
2018-05-10T03:23:37.293Z,70.05
2018-05-10T03:24:08.562Z,69.97
2018-05-10T03:24:39.829Z,69.82
2018-05-10T03:25:11.127Z,69.75
2018-05-10T03:25:42.352Z,69.70
2018-05-10T03:26:13.608Z,69.66
2018-05-10T03:26:44.841Z,69.57
2018-05-10T03:27:16.066Z,69.51
2018-05-10T03:27:47.304Z,69.40
2018-05-10T03:28:18.541Z,69.42
2018-05-10T03:28:49.785Z,69.32
2018-05-10T03:29:21.011Z,69.36
2018-05-10T03:29:52.353Z,69.43
2018-05-10T03:30:23.579Z,69.58
2018-05-10T03:30:54.808Z,69.93
2018-05-10T03:31:26.032Z,70.50
2018-05-10T03:31:57.323Z,70.71
2018-05-10T03:32:28.566Z,71.03
2018-05-10T03:32:59.791Z,70.63
2018-05-10T03:33:31.030Z,70.90
2018-05-10T03:34:02.278Z,71.00
2018-05-10T03:34:33.511Z,70.47
2018-05-10T03:35:04.804Z,70.19
2018-05-10T03:35:36.062Z,70.31
2018-05-10T03:36:07.318Z,70.14
2018-05-10T03:36:38.601Z,70.20
2018-05-10T03:37:10.077Z,70.20
2018-05-10T03:37:41.325Z,69.81
2018-05-10T03:38:12.569Z,69.64
2018-05-10T03:38:43.807Z,69.60
2018-05-10T03:39:15.045Z,69.60
2018-05-10T03:39:46.276Z,69.68
2018-05-10T03:40:17.505Z,69.74
2018-05-10T03:40:48.758Z,69.68
2018-05-10T03:41:19.979Z,69.66
2018-05-10T03:41:51.254Z,69.64
2018-05-10T03:42:22.479Z,69.59
2018-05-10T03:42:53.776Z,69.66
2018-05-10T03:43:24.989Z,69.72
2018-05-10T03:43:56.230Z,69.53
2018-05-10T03:44:27.478Z,69.61
2018-05-10T03:44:58.714Z,69.51
2018-05-10T03:45:29.964Z,69.56
2018-05-10T03:46:01.226Z,69.55
2018-05-10T03:46:32.472Z,69.41
2018-05-10T03:47:03.735Z,69.49
2018-05-10T03:47:35.590Z,69.58
2018-05-10T03:48:06.821Z,69.69
2018-05-10T03:48:38.022Z,69.75
2018-05-10T03:49:09.270Z,69.85
2018-05-10T03:49:40.521Z,69.72
2018-05-10T03:50:11.773Z,69.61
2018-05-10T03:50:43.005Z,69.70
2018-05-10T03:51:14.261Z,69.79
2018-05-10T03:51:45.472Z,69.74
2018-05-10T03:52:16.730Z,69.60
2018-05-10T03:52:48.007Z,69.51
2018-05-10T03:53:19.246Z,69.16
2018-05-10T03:53:50.474Z,68.93
2018-05-10T03:54:21.771Z,68.84
2018-05-10T03:54:53.943Z,69.12
2018-05-10T03:55:25.440Z,69.33
2018-05-10T03:55:56.675Z,69.31
2018-05-10T03:56:27.914Z,69.24
2018-05-10T03:56:59.189Z,69.09
2018-05-10T03:57:30.392Z,69.14
2018-05-10T03:58:01.617Z,68.90
2018-05-10T03:58:32.846Z,68.76
2018-05-10T03:59:04.068Z,68.82
2018-05-10T03:59:35.365Z,68.92
2018-05-10T04:00:06.739Z,69.04
2018-05-10T04:00:37.960Z,68.93
2018-05-10T04:01:09.188Z,68.58
2018-05-10T04:01:41.337Z,68.94
2018-05-10T04:02:12.617Z,68.62
2018-05-10T04:02:43.837Z,68.41
2018-05-10T04:03:15.056Z,68.30
2018-05-10T04:03:46.266Z,68.27
2018-05-10T04:04:17.477Z,68.24
2018-05-10T04:04:48.854Z,68.23
2018-05-10T04:05:20.076Z,68.31
2018-05-10T04:05:51.329Z,68.41
2018-05-10T04:06:22.549Z,68.38
2018-05-10T04:06:53.774Z,68.36
2018-05-10T04:07:24.989Z,68.44
2018-05-10T04:07:56.210Z,68.72
2018-05-10T04:08:27.436Z,68.65
2018-05-10T04:08:58.669Z,68.54
2018-05-10T04:09:29.896Z,68.62
2018-05-10T04:10:01.173Z,68.57
2018-05-10T04:10:32.409Z,68.65
2018-05-10T04:11:03.625Z,68.34
2018-05-10T04:11:34.852Z,68.27
2018-05-10T04:12:06.051Z,68.25
2018-05-10T04:12:37.284Z,68.26
2018-05-10T04:13:08.478Z,68.34
2018-05-10T04:13:39.699Z,68.42
2018-05-10T04:14:10.927Z,68.44
2018-05-10T04:14:42.915Z,68.55
2018-05-10T04:15:14.165Z,68.62
2018-05-10T04:15:45.378Z,68.65
2018-05-10T04:16:16.638Z,68.57
2018-05-10T04:16:47.860Z,68.54
2018-05-10T04:17:19.077Z,68.39
2018-05-10T04:17:50.295Z,68.07
2018-05-10T04:18:21.509Z,67.67
2018-05-10T04:18:52.721Z,67.55
2018-05-10T04:19:23.947Z,67.97
2018-05-10T04:19:55.196Z,68.59
2018-05-10T04:20:26.453Z,69.21
2018-05-10T04:20:57.660Z,69.43
2018-05-10T04:21:28.870Z,69.69
2018-05-10T04:22:00.082Z,69.68
2018-05-10T04:22:31.307Z,69.64
2018-05-10T04:23:02.523Z,69.56
2018-05-10T04:23:33.738Z,69.35
2018-05-10T04:24:04.957Z,69.21
2018-05-10T04:24:36.181Z,69.12
2018-05-10T04:25:07.425Z,68.82
2018-05-10T04:25:38.649Z,68.53
2018-05-10T04:26:09.894Z,68.39
2018-05-10T04:26:41.136Z,68.33
2018-05-10T04:27:12.377Z,68.22
2018-05-10T04:27:43.593Z,68.16
2018-05-10T04:28:14.849Z,67.84
2018-05-10T04:28:46.100Z,67.54
2018-05-10T04:29:17.311Z,67.53
2018-05-10T04:29:48.525Z,67.13
2018-05-10T04:30:19.794Z,66.95
2018-05-10T04:30:50.997Z,66.86
2018-05-10T04:31:22.210Z,66.87
2018-05-10T04:31:53.448Z,67.04
2018-05-10T04:32:24.685Z,66.94
2018-05-10T04:32:55.909Z,67.00
2018-05-10T04:33:27.131Z,67.21
2018-05-10T04:33:58.348Z,67.19
2018-05-10T04:34:29.558Z,67.29
2018-05-10T04:35:00.781Z,67.28
2018-05-10T04:35:32.044Z,67.57
2018-05-10T04:36:03.259Z,67.62
2018-05-10T04:36:34.468Z,67.27
2018-05-10T04:37:05.725Z,67.00
2018-05-10T04:37:36.937Z,66.85
2018-05-10T04:38:08.153Z,66.65
2018-05-10T04:38:39.383Z,66.50
2018-05-10T04:39:10.626Z,66.46
2018-05-10T04:39:41.822Z,66.57
2018-05-10T04:40:13.049Z,66.59
2018-05-10T04:40:44.314Z,66.40
2018-05-10T04:41:15.529Z,66.59
2018-05-10T04:41:46.749Z,66.43
2018-05-10T04:42:18.040Z,66.09
2018-05-10T04:42:49.229Z,66.08
2018-05-10T04:43:20.476Z,66.01
2018-05-10T04:43:51.679Z,65.62
2018-05-10T04:44:22.896Z,65.19
2018-05-10T04:44:54.105Z,64.79
2018-05-10T04:45:25.330Z,64.73
2018-05-10T04:45:56.686Z,64.97
2018-05-10T04:46:27.923Z,65.04
2018-05-10T04:46:59.157Z,65.26
2018-05-10T04:47:30.370Z,65.45
2018-05-10T04:48:01.591Z,65.72
2018-05-10T04:48:32.809Z,65.73
2018-05-10T04:49:04.003Z,66.01
2018-05-10T04:49:35.216Z,65.27
2018-05-10T04:50:06.433Z,65.37
2018-05-10T04:50:37.671Z,66.07
2018-05-10T04:51:08.926Z,66.45
2018-05-10T04:51:40.129Z,66.55
2018-05-10T04:52:11.341Z,66.59
2018-05-10T04:52:42.536Z,66.66
2018-05-10T04:53:13.778Z,66.52
2018-05-10T04:53:45.031Z,66.87
2018-05-10T04:54:16.248Z,66.81
2018-05-10T04:54:47.460Z,66.44
2018-05-10T04:55:18.682Z,66.72
2018-05-10T04:55:49.918Z,66.98
2018-05-10T04:56:21.185Z,67.23
2018-05-10T04:56:52.403Z,64.56
2018-05-10T04:57:23.637Z,64.41
2018-05-10T04:57:54.853Z,62.81
2018-05-10T04:58:26.118Z,62.91
2018-05-10T04:58:57.334Z,62.28
2018-05-10T04:59:28.569Z,62.18
2018-05-10T04:59:59.777Z,62.57
2018-05-10T05:00:30.981Z,62.83
2018-05-10T05:01:02.887Z,62.24
2018-05-10T05:01:34.141Z,62.53
2018-05-10T05:02:05.364Z,62.44
2018-05-10T05:02:36.577Z,62.60
2018-05-10T05:03:07.789Z,62.95
2018-05-10T05:03:39.069Z,63.42
2018-05-10T05:04:10.325Z,63.63
2018-05-10T05:04:41.532Z,63.93
2018-05-10T05:05:12.741Z,63.84
2018-05-10T05:05:43.953Z,63.77
2018-05-10T05:06:15.173Z,63.59
2018-05-10T05:06:46.458Z,63.72
2018-05-10T05:07:17.677Z,64.22
2018-05-10T05:07:52.692Z,64.01
2018-05-10T05:08:24.460Z,64.08
2018-05-10T05:08:56.163Z,64.30
2018-05-10T05:09:27.486Z,64.47
2018-05-10T05:10:02.245Z,63.79
2018-05-10T05:10:35.498Z,63.94
2018-05-10T05:11:11.019Z,64.06
2018-05-10T05:12:24.326Z,63.56
2018-05-10T05:12:56.595Z,62.57
2018-05-10T05:14:05.814Z,62.77
2018-05-10T05:14:38.089Z,62.73
2018-05-10T05:15:10.888Z,62.31
2018-05-10T05:15:42.912Z,62.44
2018-05-10T05:16:16.709Z,61.80
2018-05-10T05:16:49.626Z,62.06
2018-05-10T05:17:24.028Z,61.94
2018-05-10T05:17:58.276Z,62.29
2018-05-10T05:18:33.283Z,62.22
2018-05-10T05:19:06.083Z,61.73
2018-05-10T05:19:39.063Z,61.85
2018-05-10T05:20:16.137Z,62.00
2018-05-10T05:20:48.850Z,62.26
2018-05-10T05:21:21.952Z,61.80
2018-05-10T05:21:53.850Z,61.62
2018-05-10T05:22:31.166Z,61.39
2018-05-10T05:23:03.295Z,60.82
2018-05-10T05:23:36.617Z,60.64
2018-05-10T05:24:08.966Z,60.83
2018-05-10T05:24:41.549Z,60.46
2018-05-10T05:25:12.852Z,58.76
2018-05-10T05:25:44.089Z,58.95
2018-05-10T05:26:15.381Z,59.30
2018-05-10T05:26:46.677Z,59.55
2018-05-10T05:27:17.893Z,59.95
2018-05-10T05:27:49.114Z,60.23
2018-05-10T05:28:20.345Z,60.49
2018-05-10T05:28:51.613Z,59.89
2018-05-10T05:29:22.835Z,60.02
2018-05-10T05:29:54.061Z,60.09
2018-05-10T05:30:25.308Z,60.40
2018-05-10T05:30:56.520Z,60.31
2018-05-10T05:31:27.737Z,59.67
2018-05-10T05:31:58.957Z,59.11
2018-05-10T05:32:30.183Z,58.89
2018-05-10T05:33:01.403Z,58.82
2018-05-10T05:33:32.650Z,58.58
2018-05-10T05:34:03.912Z,58.38
2018-05-10T05:34:35.126Z,58.34
2018-05-10T05:35:06.353Z,58.57
2018-05-10T05:35:37.610Z,58.13
2018-05-10T05:36:08.840Z,57.73
2018-05-10T05:36:40.128Z,57.39
2018-05-10T05:37:11.337Z,57.41
2018-05-10T05:37:42.573Z,57.23
2018-05-10T05:38:13.849Z,57.33
2018-05-10T05:38:45.061Z,57.24
2018-05-10T05:39:16.347Z,57.24
2018-05-10T05:39:47.606Z,57.67
2018-05-10T05:40:18.831Z,57.65
2018-05-10T05:40:50.051Z,57.63
2018-05-10T05:41:21.329Z,57.44
2018-05-10T05:41:52.553Z,57.66
2018-05-10T05:42:27.835Z,57.82
2018-05-10T05:43:01.061Z,57.65
2018-05-10T05:43:34.992Z,57.86
2018-05-10T05:44:10.141Z,58.18
2018-05-10T05:45:20.338Z,58.24
2018-05-10T05:45:53.003Z,58.44
2018-05-10T05:46:24.366Z,58.55
2018-05-10T05:46:57.710Z,58.45
2018-05-10T05:47:29.051Z,58.46
2018-05-10T05:48:00.328Z,58.42
2018-05-10T05:48:34.530Z,58.27
2018-05-10T05:49:06.313Z,58.36
2018-05-10T05:49:37.596Z,58.34
2018-05-10T05:50:08.877Z,58.13
2018-05-10T05:50:40.143Z,57.83
2018-05-10T05:51:12.643Z,57.57
2018-05-10T05:51:43.852Z,57.59
2018-05-10T05:52:15.109Z,57.53
2018-05-10T05:52:46.345Z,57.46
2018-05-10T05:53:17.591Z,57.38
2018-05-10T05:53:48.872Z,57.55
2018-05-10T05:54:20.195Z,57.27
2018-05-10T05:54:51.460Z,57.25
2018-05-10T05:55:22.731Z,57.09
2018-05-10T05:55:53.997Z,56.68
2018-05-10T05:56:25.289Z,56.48
2018-05-10T05:56:56.566Z,56.24
2018-05-10T05:57:27.794Z,56.32
2018-05-10T05:57:59.044Z,55.98
2018-05-10T05:58:30.381Z,55.78
2018-05-10T05:59:01.693Z,55.54
2018-05-10T05:59:32.949Z,55.37
2018-05-10T06:00:04.179Z,55.78
2018-05-10T06:00:35.422Z,55.70
2018-05-10T06:01:06.729Z,55.64
2018-05-10T06:01:38.259Z,55.60
2018-05-10T06:02:09.514Z,55.79
2018-05-10T06:02:40.746Z,55.48
2018-05-10T06:03:11.966Z,55.83
2018-05-10T06:03:43.225Z,56.25
2018-05-10T06:04:14.454Z,56.30
2018-05-10T06:04:46.070Z,56.16
2018-05-10T06:05:17.351Z,56.09
2018-05-10T06:05:48.600Z,55.99
2018-05-10T06:06:19.895Z,55.99
2018-05-10T06:06:51.243Z,55.83
2018-05-10T06:07:22.470Z,55.57
2018-05-10T06:07:53.717Z,55.47
2018-05-10T06:08:24.943Z,55.59
2018-05-10T06:08:56.186Z,55.67
2018-05-10T06:09:27.438Z,55.72
2018-05-10T06:09:58.680Z,55.72
2018-05-10T06:10:29.918Z,55.94
2018-05-10T06:11:01.175Z,55.58
2018-05-10T06:11:32.451Z,55.63
2018-05-10T06:12:03.713Z,55.81
2018-05-10T06:12:34.965Z,55.77
2018-05-10T06:13:06.274Z,55.81
2018-05-10T06:13:37.509Z,55.59
2018-05-10T06:14:08.736Z,55.59
2018-05-10T06:14:39.974Z,55.39
2018-05-10T06:15:11.206Z,55.18
2018-05-10T06:15:42.510Z,54.97
2018-05-10T06:16:13.739Z,54.40
2018-05-10T06:16:45.027Z,54.19
2018-05-10T06:17:16.257Z,54.08
2018-05-10T06:17:47.478Z,54.04
2018-05-10T06:18:18.716Z,53.89
2018-05-10T06:18:49.958Z,53.56
2018-05-10T06:19:21.196Z,53.32
2018-05-10T06:19:52.451Z,53.18
2018-05-10T06:20:23.707Z,52.65
2018-05-10T06:20:55.228Z,52.24
2018-05-10T06:21:26.596Z,51.90
2018-05-10T06:21:57.767Z,50.57
2018-05-10T06:22:29.001Z,49.76
2018-05-10T06:23:00.212Z,49.85
2018-05-10T06:23:31.489Z,49.93
2018-05-10T06:24:02.791Z,49.29
2018-05-10T06:24:34.002Z,48.73
2018-05-10T06:25:05.845Z,48.40
2018-05-10T06:25:37.098Z,48.79
2018-05-10T06:26:09.286Z,48.15
2018-05-10T06:26:40.568Z,48.57
2018-05-10T06:27:11.847Z,49.03
2018-05-10T06:27:43.133Z,50.22
2018-05-10T06:28:14.348Z,50.34
2018-05-10T06:28:45.574Z,50.57
2018-05-10T06:29:17.457Z,51.15
2018-05-10T06:29:48.705Z,51.61
2018-05-10T06:30:20.156Z,51.90
2018-05-10T06:30:51.378Z,51.66
2018-05-10T06:31:22.615Z,51.97
2018-05-10T06:31:53.843Z,52.63
2018-05-10T06:32:25.085Z,53.20
2018-05-10T06:32:56.765Z,53.52
2018-05-10T06:33:27.981Z,53.65
2018-05-10T06:33:59.308Z,53.52
2018-05-10T06:34:30.480Z,53.43
2018-05-10T06:35:01.705Z,52.98
2018-05-10T06:35:32.943Z,52.94
2018-05-10T06:36:04.185Z,52.09
2018-05-10T06:36:35.408Z,51.39
2018-05-10T06:37:10.454Z,52.09
2018-05-10T06:37:41.730Z,52.38
2018-05-10T06:38:12.950Z,52.32
2018-05-10T06:38:44.232Z,52.49
2018-05-10T06:39:15.704Z,52.38
2018-05-10T06:39:46.926Z,52.88
2018-05-10T06:40:18.920Z,52.91
2018-05-10T06:40:50.169Z,53.01
2018-05-10T06:41:21.444Z,53.38
2018-05-10T06:41:52.699Z,53.41
2018-05-10T06:42:23.932Z,53.00
2018-05-10T06:42:55.161Z,52.81
2018-05-10T06:43:26.394Z,52.43
2018-05-10T06:43:57.675Z,52.21
2018-05-10T06:44:29.416Z,51.63
2018-05-10T06:45:00.644Z,51.90
2018-05-10T06:45:31.880Z,52.00
2018-05-10T06:46:03.992Z,51.95
2018-05-10T06:46:35.260Z,52.05
2018-05-10T06:47:06.485Z,52.26